createdAt,value
2023-01-30T00:00:12.721Z,19.43
2023-01-30T00:02:41.511Z,22.13
2023-01-30T00:05:15.491Z,20.20
2023-01-30T00:07:48.401Z,22.23
2023-01-30T00:10:21.007Z,20.07
2023-01-30T00:12:53.354Z,22.10
2023-01-30T00:15:27.418Z,21.50
2023-01-30T00:17:56.227Z,24.17
2023-01-30T00:20:27.798Z,23.13
2023-01-30T00:23:01.201Z,24.00
2023-01-30T00:25:32.774Z,22.23
2023-01-30T00:28:02.691Z,21.67
2023-01-30T00:30:32.200Z,21.77
2023-01-30T00:33:03.942Z,20.40
2023-01-30T00:35:32.732Z,23.63
2023-01-30T00:38:04.894Z,21.40
2023-01-30T00:40:39.022Z,22.00
2023-01-30T00:43:25.131Z,21.33
2023-01-30T00:46:15.415Z,21.73
2023-01-30T00:48:44.555Z,20.70
2023-01-30T00:51:13.706Z,21.50
2023-01-30T00:53:42.539Z,20.20
2023-01-30T00:56:12.770Z,19.87
2023-01-30T00:58:41.465Z,20.97
2023-01-30T01:01:19.691Z,20.67
2023-01-30T01:03:54.404Z,20.83
2023-01-30T01:06:23.150Z,22.53
2023-01-30T01:08:54.993Z,21.40
2023-01-30T01:11:28.117Z,20.77
2023-01-30T01:14:00.529Z,19.00
2023-01-30T01:16:30.567Z,22.57
2023-01-30T01:18:59.431Z,19.80
2023-01-30T01:21:28.520Z,22.00
2023-01-30T01:24:02.390Z,18.00
2023-01-30T01:26:32.502Z,17.70
2023-01-30T01:29:01.432Z,19.63
2023-01-30T01:31:34.066Z,18.27
2023-01-30T01:34:05.774Z,18.63
2023-01-30T01:36:54.069Z,17.70
2023-01-30T01:39:47.577Z,17.93
2023-01-30T01:42:16.853Z,17.73
2023-01-30T01:45:12.687Z,19.40
2023-01-30T01:47:43.965Z,20.53
2023-01-30T01:50:19.908Z,16.53
2023-01-30T01:52:52.148Z,16.63
2023-01-30T01:55:22.620Z,17.40
2023-01-30T01:57:56.571Z,15.73
2023-01-30T02:00:26.468Z,16.27
2023-01-30T02:02:58.815Z,15.60
2023-01-30T02:05:36.195Z,16.37
2023-01-30T02:08:09.896Z,17.20
2023-01-30T02:10:48.206Z,17.03
2023-01-30T02:13:18.874Z,16.07
2023-01-30T02:15:47.821Z,15.70
2023-01-30T02:18:21.598Z,14.83
2023-01-30T02:21:11.359Z,17.53
2023-01-30T02:24:16.416Z,13.27
2023-01-30T02:27:33.971Z,14.90
2023-01-30T02:30:24.917Z,15.07
2023-01-30T02:33:05.875Z,14.23
2023-01-30T02:35:47.923Z,16.27
2023-01-30T02:38:30.169Z,14.47
2023-01-30T02:41:12.641Z,14.50
2023-01-30T02:43:49.158Z,15.47
2023-01-30T02:46:22.313Z,13.03
2023-01-30T02:48:58.118Z,14.60
2023-01-30T02:51:32.318Z,15.63
2023-01-30T02:54:07.601Z,14.00
2023-01-30T02:56:47.914Z,13.90
2023-01-30T02:59:19.746Z,13.73
2023-01-30T03:02:21.190Z,17.23
2023-01-30T03:05:22.775Z,14.83
2023-01-30T03:07:59.606Z,14.20
2023-01-30T03:10:35.871Z,14.10
2023-01-30T03:13:10.208Z,13.13
2023-01-30T03:15:44.033Z,14.20
2023-01-30T03:18:13.195Z,11.47
2023-01-30T03:20:43.461Z,10.77
2023-01-30T03:23:12.333Z,12.97
2023-01-30T03:25:45.641Z,12.93
2023-01-30T03:28:17.924Z,13.57
2023-01-30T03:30:46.843Z,15.37
2023-01-30T03:33:15.530Z,11.83
2023-01-30T03:35:48.457Z,14.23
2023-01-30T03:38:18.290Z,11.10
2023-01-30T03:40:47.080Z,13.53
2023-01-30T03:43:15.823Z,10.77
2023-01-30T03:45:46.411Z,12.57
2023-01-30T03:48:15.084Z,11.47
2023-01-30T03:50:44.015Z,12.67
2023-01-30T03:53:14.106Z,12.20
2023-01-30T03:55:42.779Z,13.37
2023-01-30T03:58:11.438Z,10.20
2023-01-30T04:00:40.330Z,12.30
2023-01-30T04:03:09.043Z,11.43
2023-01-30T04:05:37.947Z,11.73
2023-01-30T04:08:06.948Z,10.93
2023-01-30T04:10:36.999Z,10.83
2023-01-30T04:13:07.644Z,11.30
2023-01-30T04:15:36.474Z,10.90
2023-01-30T04:18:05.576Z,10.23
2023-01-30T04:20:34.271Z,9.93
2023-01-30T04:23:03.174Z,10.73
2023-01-30T04:25:31.890Z,10.13
2023-01-30T04:28:01.966Z,10.80
2023-01-30T04:30:30.810Z,10.37
2023-01-30T04:32:59.609Z,9.60
2023-01-30T04:35:28.322Z,11.50
2023-01-30T04:37:56.994Z,10.70
2023-01-30T04:40:25.681Z,10.53
2023-01-30T04:42:54.398Z,10.50
2023-01-30T04:45:24.395Z,10.40
2023-01-30T04:47:53.094Z,13.33
2023-01-30T04:50:21.863Z,10.87
2023-01-30T04:52:50.440Z,12.30
2023-01-30T04:55:19.619Z,10.23
2023-01-30T04:57:48.492Z,11.53
2023-01-30T05:00:18.841Z,9.90
2023-01-30T05:02:48.927Z,11.83
2023-01-30T05:05:18.041Z,8.70
2023-01-30T05:07:46.954Z,10.57
2023-01-30T05:10:15.748Z,10.33
2023-01-30T05:12:44.459Z,10.87
2023-01-30T05:15:14.029Z,10.17
2023-01-30T05:17:44.659Z,11.30
2023-01-30T05:20:15.632Z,8.83
2023-01-30T05:22:44.474Z,11.70
2023-01-30T05:25:13.223Z,9.40
2023-01-30T05:27:42.051Z,9.67
2023-01-30T05:30:11.953Z,11.10
2023-01-30T05:32:40.885Z,10.20
2023-01-30T05:35:10.584Z,10.20
2023-01-30T05:37:41.215Z,9.97
2023-01-30T05:40:11.647Z,9.20
2023-01-30T05:42:40.397Z,9.57
2023-01-30T05:45:10.479Z,9.80
2023-01-30T05:47:39.213Z,9.63
2023-01-30T05:50:20.229Z,8.03
2023-01-30T05:52:53.086Z,10.70
2023-01-30T05:55:21.856Z,8.93
2023-01-30T05:57:50.591Z,9.57
2023-01-30T06:00:20.321Z,8.40
2023-01-30T06:02:48.973Z,9.60
2023-01-30T06:05:18.201Z,8.70
2023-01-30T06:07:47.318Z,9.23
2023-01-30T06:10:17.928Z,8.67
2023-01-30T06:12:46.709Z,9.13
2023-01-30T06:15:15.882Z,9.17
2023-01-30T06:17:45.163Z,9.27
2023-01-30T06:20:14.311Z,8.13
2023-01-30T06:22:43.067Z,9.80
2023-01-30T06:25:12.405Z,9.73
2023-01-30T06:27:43.440Z,8.67
2023-01-30T06:30:13.299Z,8.67
2023-01-30T06:32:42.893Z,8.53
2023-01-30T06:35:11.626Z,7.17
2023-01-30T06:37:40.515Z,8.97
2023-01-30T06:40:10.903Z,7.60
2023-01-30T06:42:39.907Z,10.10
2023-01-30T06:45:11.456Z,7.23
2023-01-30T06:47:46.450Z,9.30
2023-01-30T06:50:16.492Z,7.97
2023-01-30T06:52:45.966Z,9.43
2023-01-30T06:55:17.364Z,9.77
2023-01-30T06:57:50.951Z,12.00
2023-01-30T07:00:21.934Z,12.93
2023-01-30T07:02:50.622Z,10.60
2023-01-30T07:05:19.815Z,10.17
2023-01-30T07:07:49.065Z,7.97
2023-01-30T07:10:18.296Z,9.05
2023-01-30T07:12:47.488Z,9.73
2023-01-30T07:15:16.859Z,10.17
2023-01-30T07:17:47.172Z,8.90
2023-01-30T07:20:16.188Z,8.50
2023-01-30T07:22:50.065Z,8.03
2023-01-30T07:25:19.471Z,7.93
2023-01-30T07:27:52.575Z,8.63
2023-01-30T07:30:21.616Z,7.83
2023-01-30T07:32:55.803Z,9.17
2023-01-30T07:35:25.974Z,8.37
2023-01-30T07:37:55.044Z,9.57
2023-01-30T07:40:24.275Z,7.63
2023-01-30T07:43:00.726Z,9.57
2023-01-30T07:45:32.736Z,7.37
2023-01-30T07:48:02.872Z,7.30
2023-01-30T07:50:31.666Z,8.10
2023-01-30T07:53:00.375Z,7.60
2023-01-30T07:55:29.166Z,9.40
2023-01-30T07:57:59.525Z,7.60
2023-01-30T08:00:29.052Z,8.30
2023-01-30T08:02:57.698Z,8.77
2023-01-30T08:05:27.864Z,7.27
2023-01-30T08:07:57.155Z,9.73
2023-01-30T08:10:26.245Z,7.50
2023-01-30T08:12:54.893Z,8.40
2023-01-30T08:15:23.533Z,8.37
2023-01-30T08:17:56.242Z,9.43
2023-01-30T08:20:25.658Z,8.13
2023-01-30T08:22:57.065Z,9.33
2023-01-30T08:25:25.856Z,8.00
2023-01-30T08:27:54.869Z,10.63
2023-01-30T08:30:24.204Z,9.23
2023-01-30T08:32:52.983Z,9.57
2023-01-30T08:35:21.800Z,6.63
2023-01-30T08:37:50.503Z,9.23
2023-01-30T08:40:23.592Z,9.63
2023-01-30T08:42:52.206Z,9.20
2023-01-30T08:45:21.008Z,7.97
2023-01-30T08:47:52.341Z,10.33
2023-01-30T08:50:21.326Z,7.73
2023-01-30T08:52:50.171Z,9.93
2023-01-30T08:55:21.023Z,8.73
2023-01-30T08:57:50.363Z,9.50
2023-01-30T09:00:21.175Z,7.50
2023-01-30T09:02:50.002Z,11.73
2023-01-30T09:05:18.923Z,6.97
2023-01-30T09:07:47.703Z,10.60
2023-01-30T09:10:17.142Z,10.70
2023-01-30T09:12:47.696Z,8.90
2023-01-30T09:15:16.646Z,10.30
2023-01-30T09:17:45.418Z,10.17
2023-01-30T09:20:14.411Z,6.97
2023-01-30T09:22:43.092Z,7.27
2023-01-30T09:25:11.873Z,9.83
2023-01-30T09:27:44.474Z,10.10
2023-01-30T09:30:15.378Z,10.73
2023-01-30T09:32:44.121Z,9.57
2023-01-30T09:35:13.237Z,11.47
2023-01-30T09:37:49.165Z,8.10
2023-01-30T09:40:20.486Z,8.00
2023-01-30T09:43:11.899Z,8.50
2023-01-30T09:46:04.860Z,7.83
2023-01-30T09:48:39.645Z,7.93
2023-01-30T09:51:28.847Z,8.67
2023-01-30T09:54:12.313Z,8.50
2023-01-30T09:56:41.205Z,10.97
2023-01-30T09:59:20.792Z,8.57
2023-01-30T10:02:00.540Z,10.07
2023-01-30T10:04:34.360Z,8.97
2023-01-30T10:07:18.470Z,10.07
2023-01-30T10:09:59.308Z,9.07
2023-01-30T10:12:44.894Z,8.40
2023-01-30T10:15:26.402Z,8.23
2023-01-30T10:18:12.884Z,10.40
2023-01-30T10:20:49.398Z,9.27
2023-01-30T10:23:48.012Z,9.00
2023-01-30T10:26:20.380Z,7.87
2023-01-30T10:29:06.655Z,9.20
2023-01-30T10:31:43.505Z,8.17
2023-01-30T10:34:19.454Z,7.90
2023-01-30T10:36:53.656Z,8.23
2023-01-30T10:39:29.264Z,8.10
2023-01-30T10:42:06.938Z,9.60
2023-01-30T10:44:35.796Z,7.80
2023-01-30T10:47:46.663Z,7.77
2023-01-30T10:50:20.904Z,8.83
2023-01-30T10:53:01.161Z,10.27
2023-01-30T10:55:38.568Z,8.80
2023-01-30T10:58:17.902Z,9.17
2023-01-30T11:00:53.352Z,8.77
2023-01-30T11:03:33.711Z,9.10
2023-01-30T11:06:10.796Z,8.47
2023-01-30T11:08:40.085Z,8.83
2023-01-30T11:11:32.457Z,9.40
2023-01-30T11:14:09.907Z,9.63
2023-01-30T11:16:47.601Z,7.77
2023-01-30T11:19:20.819Z,8.47
2023-01-30T11:21:55.117Z,9.70
2023-01-30T11:24:29.799Z,9.57
2023-01-30T11:27:13.757Z,11.90
2023-01-30T11:29:45.642Z,9.90
2023-01-30T11:32:19.993Z,8.47
2023-01-30T11:35:04.643Z,9.33
2023-01-30T11:37:36.058Z,8.80
2023-01-30T11:40:31.476Z,10.47
2023-01-30T11:43:04.912Z,11.03
2023-01-30T11:45:42.141Z,9.50
2023-01-30T11:48:32.877Z,8.63
2023-01-30T11:51:10.660Z,9.37
2023-01-30T11:53:47.246Z,8.63
2023-01-30T11:56:31.472Z,11.70
2023-01-30T11:59:03.837Z,9.97
2023-01-30T12:01:35.928Z,8.93
2023-01-30T12:04:09.414Z,8.73
2023-01-30T12:06:40.569Z,10.83
2023-01-30T12:09:41.708Z,8.47
2023-01-30T12:12:32.421Z,9.00
2023-01-30T12:15:23.516Z,10.87
2023-01-30T12:17:58.829Z,9.50
2023-01-30T12:20:38.893Z,8.13
2023-01-30T12:23:14.458Z,10.13
2023-01-30T12:25:53.793Z,10.40
2023-01-30T12:28:31.244Z,9.83
2023-01-30T12:31:05.697Z,10.67
2023-01-30T12:33:40.971Z,8.47
2023-01-30T12:36:17.681Z,9.57
2023-01-30T12:39:14.420Z,8.50
2023-01-30T12:42:04.651Z,9.77
2023-01-30T12:44:50.270Z,8.77
2023-01-30T12:47:44.691Z,9.80
2023-01-30T12:50:24.394Z,9.43
2023-01-30T12:53:18.933Z,12.40
2023-01-30T12:55:58.108Z,10.70
2023-01-30T12:58:33.369Z,10.77
2023-01-30T13:01:14.476Z,10.80
2023-01-30T13:03:46.841Z,9.63
2023-01-30T13:06:31.214Z,9.50
2023-01-30T13:09:12.515Z,11.23
2023-01-30T13:11:49.276Z,9.90
2023-01-30T13:14:27.625Z,9.60
2023-01-30T13:17:14.795Z,13.73
2023-01-30T13:19:49.975Z,9.43
2023-01-30T13:22:23.808Z,9.03
2023-01-30T13:25:01.643Z,12.03
2023-01-30T13:27:35.554Z,9.60
2023-01-30T13:30:06.967Z,10.93
2023-01-30T13:32:41.516Z,9.13
2023-01-30T13:35:18.993Z,11.27
2023-01-30T13:37:50.447Z,10.13
2023-01-30T13:40:22.533Z,9.50
2023-01-30T13:42:56.336Z,9.80
2023-01-30T13:45:30.533Z,11.43
2023-01-30T13:48:20.646Z,11.87
2023-01-30T13:51:02.302Z,9.20
2023-01-30T13:53:35.971Z,9.47
2023-01-30T13:56:32.828Z,13.03
2023-01-30T13:59:11.125Z,9.73
2023-01-30T14:02:25.179Z,11.43
2023-01-30T14:04:56.497Z,10.30
2023-01-30T14:07:28.810Z,8.93
2023-01-30T14:10:15.227Z,12.10
2023-01-30T14:12:45.958Z,9.43
2023-01-30T14:15:26.081Z,9.97
2023-01-30T14:18:05.369Z,11.00
2023-01-30T14:20:37.052Z,9.13
2023-01-30T14:23:08.221Z,9.87
2023-01-30T14:25:48.497Z,9.93
2023-01-30T14:28:47.706Z,10.87
2023-01-30T14:31:53.035Z,10.13
2023-01-30T14:34:40.975Z,11.20
2023-01-30T14:37:45.074Z,10.33
2023-01-30T14:40:37.746Z,9.73
2023-01-30T14:43:48.515Z,9.60
2023-01-30T14:46:55.744Z,9.33
2023-01-30T14:49:31.973Z,9.87
2023-01-30T14:52:01.145Z,10.70
2023-01-30T14:54:42.402Z,9.27
2023-01-30T14:57:27.712Z,9.57
2023-01-30T15:00:18.423Z,10.33
2023-01-30T15:02:54.023Z,10.37
2023-01-30T15:05:38.351Z,10.20
2023-01-30T15:08:16.296Z,10.30
2023-01-30T15:11:05.233Z,10.30
2023-01-30T15:13:56.956Z,9.47
2023-01-30T15:16:46.215Z,9.70
2023-01-30T15:19:32.590Z,9.50
2023-01-30T15:22:13.799Z,9.77
2023-01-30T15:25:07.755Z,10.53
2023-01-30T15:27:48.083Z,11.27
2023-01-30T15:30:28.719Z,9.77
2023-01-30T15:33:29.929Z,10.30
2023-01-30T15:36:00.140Z,12.00
2023-01-30T15:38:31.618Z,10.30
2023-01-30T15:41:03.541Z,10.60
2023-01-30T15:44:04.744Z,9.80
2023-01-30T15:46:46.679Z,10.87
2023-01-30T15:49:44.962Z,12.50
2023-01-30T15:52:16.797Z,11.63
2023-01-30T15:54:52.373Z,10.10
2023-01-30T15:57:27.023Z,11.20
2023-01-30T15:59:56.782Z,9.90
2023-01-30T16:02:31.894Z,11.23
2023-01-30T16:05:14.712Z,12.37
2023-01-30T16:07:43.876Z,10.37
2023-01-30T16:10:16.836Z,14.27
2023-01-30T16:12:46.095Z,10.10
2023-01-30T16:15:19.809Z,11.10
2023-01-30T16:17:59.520Z,10.07
2023-01-30T16:20:28.334Z,9.13
2023-01-30T16:22:57.291Z,10.63
2023-01-30T16:25:34.504Z,8.50
2023-01-30T16:28:03.307Z,10.37
2023-01-30T16:30:32.210Z,8.97
2023-01-30T16:33:10.535Z,9.73
2023-01-30T16:35:46.009Z,10.33
2023-01-30T16:38:35.890Z,10.27
2023-01-30T16:41:05.351Z,10.40
2023-01-30T16:43:35.214Z,7.90
2023-01-30T16:46:46.518Z,11.10
2023-01-30T16:49:21.448Z,8.33
2023-01-30T16:51:51.821Z,9.20
2023-01-30T16:54:24.676Z,8.70
2023-01-30T16:56:56.788Z,10.43
2023-01-30T16:59:30.607Z,11.37
2023-01-30T17:02:00.377Z,11.07
2023-01-30T17:04:32.204Z,9.07
2023-01-30T17:07:04.077Z,9.37
2023-01-30T17:09:39.741Z,9.37
2023-01-30T17:12:43.877Z,9.37
2023-01-30T17:15:36.059Z,9.67
2023-01-30T17:18:04.974Z,9.00
2023-01-30T17:20:51.221Z,9.77
2023-01-30T17:23:21.996Z,8.20
2023-01-30T17:25:53.029Z,8.23
2023-01-30T17:28:24.380Z,9.40
2023-01-30T17:30:53.154Z,7.93
2023-01-30T17:33:21.829Z,8.93
2023-01-30T17:35:52.084Z,8.83
2023-01-30T17:38:20.737Z,10.10
2023-01-30T17:40:49.626Z,9.33
2023-01-30T17:43:18.270Z,9.23
2023-01-30T17:45:48.637Z,8.57
2023-01-30T17:48:17.565Z,9.90
2023-01-30T17:50:49.214Z,8.80
2023-01-30T17:53:19.333Z,10.60
2023-01-30T17:55:48.085Z,9.03
2023-01-30T17:58:18.186Z,9.67
2023-01-30T18:00:49.696Z,8.83
2023-01-30T18:03:18.337Z,9.60
2023-01-30T18:05:47.138Z,8.77
2023-01-30T18:08:15.773Z,9.57
2023-01-30T18:10:45.859Z,10.10
2023-01-30T18:13:14.680Z,9.07
2023-01-30T18:15:43.457Z,8.13
2023-01-30T18:18:16.184Z,9.70
2023-01-30T18:20:45.514Z,7.93
2023-01-30T18:23:14.964Z,9.53
2023-01-30T18:25:46.685Z,8.10
2023-01-30T18:28:15.567Z,8.93
2023-01-30T18:30:47.336Z,7.47
2023-01-30T18:33:16.065Z,10.33
2023-01-30T18:35:44.807Z,8.90
2023-01-30T18:38:13.521Z,9.07
2023-01-30T18:40:42.363Z,8.60
2023-01-30T18:43:12.587Z,9.43
2023-01-30T18:45:41.284Z,9.00
2023-01-30T18:48:10.684Z,9.30
2023-01-30T18:50:42.343Z,7.63
2023-01-30T18:53:11.122Z,10.87
2023-01-30T18:55:39.977Z,6.93
2023-01-30T18:58:11.298Z,8.27
2023-01-30T19:00:41.327Z,8.10
2023-01-30T19:03:10.169Z,8.80
2023-01-30T19:05:39.030Z,8.10
2023-01-30T19:08:07.858Z,9.30
2023-01-30T19:10:36.575Z,6.93
2023-01-30T19:13:22.669Z,9.03
2023-01-30T19:15:52.770Z,8.47
2023-01-30T19:18:21.556Z,8.20
2023-01-30T19:20:50.341Z,10.23
2023-01-30T19:23:19.099Z,7.87
2023-01-30T19:25:54.850Z,8.27
2023-01-30T19:28:23.797Z,8.27
2023-01-30T19:30:55.869Z,9.67
2023-01-30T19:33:25.110Z,8.43
2023-01-30T19:35:53.859Z,8.87
2023-01-30T19:38:22.511Z,8.03
2023-01-30T19:40:51.221Z,8.60
2023-01-30T19:43:19.981Z,9.43
2023-01-30T19:46:00.825Z,9.33
2023-01-30T19:48:29.626Z,8.43
2023-01-30T19:51:00.923Z,7.93
2023-01-30T19:53:29.639Z,7.00
2023-01-30T19:55:58.423Z,9.97
2023-01-30T19:58:27.198Z,7.10
2023-01-30T20:00:56.048Z,9.03
2023-01-30T20:03:26.344Z,8.80
2023-01-30T20:05:55.320Z,9.50
2023-01-30T20:08:32.647Z,7.93
2023-01-30T20:11:05.253Z,8.80
2023-01-30T20:13:37.107Z,7.07
2023-01-30T20:16:06.771Z,7.93
2023-01-30T20:18:38.751Z,8.23
2023-01-30T20:21:10.109Z,10.20
2023-01-30T20:23:41.287Z,8.27
2023-01-30T20:26:13.298Z,9.07
2023-01-30T20:28:42.737Z,7.50
2023-01-30T20:31:12.956Z,8.80
2023-01-30T20:33:52.782Z,6.27
2023-01-30T20:36:24.978Z,8.00
2023-01-30T20:38:58.976Z,8.93
2023-01-30T20:41:28.294Z,7.63
2023-01-30T20:43:58.454Z,7.63
2023-01-30T20:46:30.810Z,7.10
2023-01-30T20:49:02.390Z,6.53
2023-01-30T20:51:32.918Z,7.60
2023-01-30T20:54:04.179Z,7.03
2023-01-30T20:56:34.972Z,6.50
2023-01-30T20:59:05.303Z,8.27
2023-01-30T21:01:34.732Z,6.53
2023-01-30T21:04:08.986Z,6.13
2023-01-30T21:06:44.841Z,6.20
2023-01-30T21:09:17.965Z,7.10
2023-01-30T21:11:47.345Z,8.10
2023-01-30T21:14:17.019Z,8.33
2023-01-30T21:16:46.442Z,7.17
2023-01-30T21:19:18.108Z,8.10
2023-01-30T21:21:50.975Z,5.63
2023-01-30T21:24:21.969Z,8.23
2023-01-30T21:26:51.668Z,9.87
2023-01-30T21:29:23.564Z,10.47
2023-01-30T21:31:52.873Z,6.70
2023-01-30T21:34:25.659Z,7.27
2023-01-30T21:37:11.630Z,6.73
2023-01-30T21:39:58.177Z,6.23
2023-01-30T21:42:44.671Z,7.40
2023-01-30T21:45:13.653Z,7.23
2023-01-30T21:47:42.731Z,5.90
2023-01-30T21:50:16.430Z,6.93
2023-01-30T21:52:45.143Z,7.03
2023-01-30T21:55:13.912Z,8.83
2023-01-30T21:57:44.873Z,8.50
2023-01-30T22:00:15.302Z,8.30
2023-01-30T22:02:44.052Z,6.80
2023-01-30T22:05:16.012Z,8.67
2023-01-30T22:07:46.467Z,6.27
2023-01-30T22:10:20.598Z,9.53
2023-01-30T22:12:52.139Z,7.00
2023-01-30T22:15:22.801Z,8.93
2023-01-30T22:17:55.757Z,8.30
2023-01-30T22:20:26.399Z,8.67
2023-01-30T22:22:56.626Z,7.33
2023-01-30T22:25:25.363Z,9.37
2023-01-30T22:27:54.391Z,7.23
2023-01-30T22:30:23.144Z,8.43
2023-01-30T22:32:54.993Z,7.13
2023-01-30T22:35:25.139Z,9.00
2023-01-30T22:37:54.249Z,6.43
2023-01-30T22:40:23.075Z,7.23
2023-01-30T22:42:51.832Z,7.93
2023-01-30T22:45:23.582Z,7.37
2023-01-30T22:47:52.436Z,8.70
2023-01-30T22:50:31.444Z,8.83
2023-01-30T22:53:00.383Z,8.43
2023-01-30T22:55:29.181Z,6.17
2023-01-30T22:57:57.953Z,7.03
2023-01-30T23:00:29.913Z,7.60
2023-01-30T23:02:58.651Z,7.07
2023-01-30T23:05:27.442Z,6.70
2023-01-30T23:07:58.320Z,8.60
2023-01-30T23:10:27.161Z,6.77
2023-01-30T23:13:07.860Z,7.07
2023-01-30T23:15:42.778Z,6.47
2023-01-30T23:18:28.925Z,8.33
2023-01-30T23:20:57.874Z,7.30
2023-01-30T23:23:31.242Z,8.80
2023-01-30T23:26:02.780Z,7.67
2023-01-30T23:28:31.620Z,8.03
2023-01-30T23:31:05.691Z,7.27
2023-01-30T23:33:34.651Z,6.33
2023-01-30T23:36:04.607Z,6.17
2023-01-30T23:38:35.476Z,6.63
2023-01-30T23:41:12.465Z,5.93
2023-01-30T23:43:42.438Z,6.23
2023-01-30T23:46:21.165Z,6.00
2023-01-30T23:48:51.683Z,7.77
2023-01-30T23:51:22.073Z,7.23
2023-01-30T23:53:55.401Z,7.10
2023-01-30T23:56:26.038Z,7.97
2023-01-30T23:58:54.931Z,6.67
